EST,Max TemperatureF,Mean TemperatureF,Min TemperatureF,Max Dew PointF,MeanDew PointF,Min DewpointF,Max Humidity, Mean Humidity, Min Humidity, Max Sea Level PressureIn, Mean Sea Level PressureIn, Min Sea Level PressureIn, Max VisibilityMiles, Mean VisibilityMiles, Min VisibilityMiles, Max Wind SpeedMPH, Mean Wind SpeedMPH, Max Gust SpeedMPH,PrecipitationIn, CloudCover, Events, WindDirDegrees
2014-1-1,49,38,26,23,19,12,68,51,34,30.40,30.28,30.11,10,10,10,15,5,18,0.00,0,,194
2014-1-2,38,33,27,31,28,22,92,74,56,30.07,29.76,29.61,10,5,0,9,3,14,0.17,5,Fog-Rain-Snow,24
2014-1-3,33,24,15,30,6,1,100,67,33,30.49,30.17,29.63,10,10,2,25,8,37,T,1,Rain,344
2014-1-4,35,23,11,16,9,4,76,57,38,30.52,30.41,30.26,10,10,10,16,6,19,0.00,1,,201
2014-1-5,39,35,31,38,29,15,100,75,49,30.25,30.09,29.70,10,4,1,12,2,14,0.58,8,Rain,95
2014-1-6,48,29,9,43,22,-15,100,65,30,30.11,29.72,29.53,10,8,0,18,10,29,0.01,5,Fog-Rain,247
2014-1-7,21,12,3,-4,-11,-14,51,38,25,30.44,30.33,30.13,10,10,10,15,6,20,0.00,0,,228
2014-1-8,34,22,9,11,2,-8,66,46,26,30.59,30.50,30.44,10,10,10,12,3,16,0.00,2,,208
2014-1-9,43,34,25,20,15,10,63,50,36,30.62,30.55,30.46,10,10,10,12,4,14,0.00,2,,41
2014-1-10,36,34,31,35,32,19,100,78,56,30.50,30.31,30.13,10,3,1,6,0,6,0.64,8,Rain,6
2014-1-11,53,44,35,50,40,33,100,77,54,30.11,29.77,29.47,10,4,0,18,5,23,0.67,7,Fog-Rain,190
2014-1-12,54,45,36,32,27,25,59,47,35,30.11,29.92,29.60,10,10,10,14,5,22,0.00,1,,258
2014-1-13,57,44,31,40,31,26,76,58,40,30.08,30.00,29.89,10,10,10,20,9,26,T,1,Rain,201
2014-1-14,50,42,33,46,42,33,93,82,71,29.92,29.81,29.72,10,9,3,18,6,25,0.10,6,Rain,186
2014-1-15,54,41,27,37,31,28,100,75,50,29.95,29.91,29.83,10,8,1,13,4,20,0.03,4,Rain-Snow,310
2014-1-16,40,35,29,32,25,11,96,63,30,30.02,29.95,29.88,10,7,1,9,3,14,0.01,5,Snow,111
2014-1-17,49,38,26,30,21,16,69,52,34,29.96,29.88,29.82,10,10,10,15,6,19,T,2,Rain,196
2014-1-18,38,31,24,30,10,5,70,51,32,29.98,29.92,29.81,10,10,10,16,7,25,0.00,1,,290
2014-1-19,47,34,21,23,18,11,62,49,36,29.94,29.84,29.77,10,10,10,18,7,32,0.00,2,,214
2014-1-20,59,47,35,25,21,16,64,44,23,29.84,29.74,29.66,10,10,10,21,10,27,0.00,0,,205
2014-1-21,36,28,20,29,23,14,92,78,64,29.86,29.78,29.68,10,4,1,24,8,33,0.04,7,Snow,30
2014-1-22,23,17,10,10,-5,-10,77,51,25,30.08,30.00,29.88,10,10,10,15,6,25,0.00,2,,338
2014-1-23,27,15,3,9,-2,-9,79,54,29,30.46,30.25,30.09,10,10,9,16,6,24,0.00,2,,284
2014-1-24,23,15,6,-1,-6,-11,49,39,28,30.56,30.39,30.09,10,10,10,17,8,24,0.00,0,,224
2014-1-25,34,26,17,25,9,-1,69,53,37,30.06,29.69,29.49,10,8,0,24,14,31,T,4,Fog-Snow,227
2014-1-26,36,27,17,8,2,-5,46,36,26,29.89,29.81,29.73,10,10,10,20,4,35,0.00,1,,234
2014-1-27,57,40,23,30,15,-8,61,42,23,30.17,29.84,29.69,10,10,10,16,9,25,0.00,0,,269
2014-1-28,23,18,12,7,-3,-13,76,52,27,30.41,30.29,30.19,10,8,2,15,6,22,T,7,Snow,34
2014-1-29,25,15,5,8,1,-7,91,59,27,30.35,30.26,30.20,10,9,2,12,2,13,T,2,Snow,171
2014-1-30,32,19,5,5,1,-2,83,54,25,30.46,30.35,30.19,10,10,10,12,4,15,0.00,0,,202
2014-1-31,54,37,20,13,7,2,59,36,12,30.22,30.15,30.09,10,10,10,10,5,13,0.00,0,,194